Terminal Aerodrome Forecast
Issued by NWS Atlanta, GA

Home | Current Version | Previous Version | Text Only | Print | Product List | Glossary On
Versions: 1 2 3 4 5 6 7 8 9 10 11 12 13 14 15 16 17 18 19 20 21 22 23 24 25 26 27 28 29 30 31 32 33 34 35 36 37 38 39 40 41 42 43 44
000
FTAK31 PAJN 260500
TAFAHN
TAF
PAHN 260536Z 2606/2706 30012KT P6SM -SNRA OVC012
      TEMPO 2606/2608 5SM -SN FEW012 OVC035
     FM260900 30011KT P6SM -SHSN SCT015 OVC035
     FM261300 08007KT P6SM VCSH SCT015 OVC050
     FM261500 08006KT P6SM -SHRA BKN015 OVC050
     FM262200 VRB05KT P6SM -SHRA SCT015 OVC060
      AMD LTD TO CLD VIS AND WIND=

USA.gov is the U.S. government's official web portal to all federal, state and local government web resources and services.